createdAt,value
2023-04-19T00:02:25.526Z,102989.22
2023-04-19T00:04:53.361Z,102982.44
2023-04-19T00:07:20.346Z,102978.91
2023-04-19T00:09:46.915Z,102973.78
2023-04-19T00:12:13.263Z,102978.50
2023-04-19T00:14:39.664Z,102987.94
2023-04-19T00:17:06.250Z,102983.00
2023-04-19T00:19:32.914Z,102979.88
2023-04-19T00:21:59.272Z,102980.94
2023-04-19T00:24:25.688Z,102987.31
2023-04-19T00:26:52.022Z,102980.50
2023-04-19T00:29:18.332Z,102975.34
2023-04-19T00:31:44.802Z,102977.41
2023-04-19T00:34:11.173Z,102980.28
2023-04-19T00:36:37.693Z,102978.38
2023-04-19T00:39:04.219Z,102974.44
2023-04-19T00:41:30.584Z,102979.38
2023-04-19T00:43:56.996Z,102969.06
2023-04-19T00:46:23.772Z,102963.31
2023-04-19T00:48:50.982Z,102966.19
2023-04-19T00:51:17.878Z,102963.91
2023-04-19T00:53:44.535Z,102967.97
2023-04-19T00:56:11.698Z,102962.44
2023-04-19T00:58:39.288Z,102965.47
2023-04-19T01:01:06.422Z,102959.91
2023-04-19T01:03:35.277Z,102958.66
2023-04-19T01:06:02.090Z,102951.03
2023-04-19T01:08:28.470Z,102952.88
2023-04-19T01:10:54.837Z,102949.59
2023-04-19T01:13:21.426Z,102952.25
2023-04-19T01:15:47.866Z,102951.84
2023-04-19T01:18:14.215Z,102947.97
2023-04-19T01:20:40.800Z,102953.75
2023-04-19T01:23:11.352Z,102955.19
2023-04-19T01:25:38.777Z,102940.44
2023-04-19T01:28:05.923Z,102947.22
2023-04-19T01:30:32.756Z,102954.03
2023-04-19T01:32:59.295Z,102953.19
2023-04-19T01:35:25.906Z,102946.84
2023-04-19T01:37:55.392Z,102945.63
2023-04-19T01:40:25.793Z,102945.84
2023-04-19T01:42:53.130Z,102948.31
2023-04-19T01:45:19.731Z,102946.09
2023-04-19T01:47:46.173Z,102944.66
2023-04-19T01:50:12.576Z,102949.63
2023-04-19T01:52:39.062Z,102949.22
2023-04-19T01:55:05.697Z,102945.53
2023-04-19T01:57:32.132Z,102953.97
2023-04-19T01:59:58.585Z,102948.22
2023-04-19T02:02:25.092Z,102950.69
2023-04-19T02:04:51.567Z,102946.59
2023-04-19T02:07:17.897Z,102948.25
2023-04-19T02:09:44.411Z,102943.34
2023-04-19T02:12:10.738Z,102950.13
2023-04-19T02:14:37.241Z,102948.88
2023-04-19T02:17:03.753Z,102948.50
2023-04-19T02:19:30.269Z,102944.63
2023-04-19T02:21:57.795Z,102936.38
2023-04-19T02:24:25.217Z,102945.84
2023-04-19T02:26:51.725Z,102943.00
2023-04-19T02:29:18.446Z,102945.25
2023-04-19T02:31:48.355Z,102944.66
2023-04-19T02:34:15.108Z,102945.25
2023-04-19T02:36:41.721Z,102948.56
2023-04-19T02:39:08.439Z,102946.50
2023-04-19T02:41:34.856Z,102958.84
2023-04-19T02:44:01.246Z,102958.44
2023-04-19T02:46:27.729Z,102957.44
2023-04-19T02:48:54.281Z,102954.34
2023-04-19T02:51:20.712Z,102949.59
2023-04-19T02:53:47.103Z,102956.59
2023-04-19T02:56:13.527Z,102959.09
2023-04-19T02:58:39.902Z,102943.88
2023-04-19T03:01:06.882Z,102945.72
2023-04-19T03:03:33.366Z,102951.69
2023-04-19T03:05:59.827Z,102949.44
2023-04-19T03:08:26.203Z,102949.22
2023-04-19T03:10:52.602Z,102942.22
2023-04-19T03:13:18.947Z,102950.06
2023-04-19T03:15:45.500Z,102942.84
2023-04-19T03:18:11.919Z,102944.53
2023-04-19T03:20:38.422Z,102947.00
2023-04-19T03:23:04.968Z,102938.16
2023-04-19T03:25:32.067Z,102943.28
2023-04-19T03:27:58.544Z,102941.25
2023-04-19T03:30:24.920Z,102944.75
2023-04-19T03:32:52.854Z,102944.53
2023-04-19T03:35:19.289Z,102937.16
2023-04-19T03:37:45.674Z,102944.34
2023-04-19T03:40:12.492Z,102939.81
2023-04-19T03:42:38.832Z,102933.44
2023-04-19T03:45:05.844Z,102941.47
2023-04-19T03:47:32.309Z,102936.13
2023-04-19T03:49:58.717Z,102938.97
2023-04-19T03:52:25.838Z,102942.91
2023-04-19T03:54:52.178Z,102937.94
2023-04-19T03:57:18.594Z,102935.69
2023-04-19T03:59:44.989Z,102931.94
2023-04-19T04:02:11.454Z,102926.41
2023-04-19T04:04:38.039Z,102938.72
2023-04-19T04:07:04.579Z,102936.66
2023-04-19T04:09:31.215Z,102933.53
2023-04-19T04:11:57.660Z,102932.91
2023-04-19T04:14:24.371Z,102931.31
2023-04-19T04:16:50.905Z,102933.34
2023-04-19T04:19:18.617Z,102931.06
2023-04-19T04:21:45.177Z,102935.56
2023-04-19T04:24:11.554Z,102932.47
2023-04-19T04:26:39.319Z,102942.97
2023-04-19T04:29:05.915Z,102940.47
2023-04-19T04:31:32.312Z,102942.53
2023-04-19T04:33:58.790Z,102936.75
2023-04-19T04:36:26.098Z,102943.72
2023-04-19T04:38:52.516Z,102936.94
2023-04-19T04:41:22.514Z,102936.31
2023-04-19T04:44:08.390Z,102942.06
2023-04-19T04:46:38.290Z,102946.34
2023-04-19T04:49:04.879Z,102943.88
2023-04-19T04:51:32.013Z,102940.16
2023-04-19T04:53:58.573Z,102937.66
2023-04-19T04:56:26.372Z,102943.22
2023-04-19T04:58:52.778Z,102950.38
2023-04-19T05:01:20.474Z,102945.47
2023-04-19T05:03:46.915Z,102944.84
2023-04-19T05:06:13.280Z,102949.75
2023-04-19T05:08:39.699Z,102947.09
2023-04-19T05:11:06.142Z,102950.13
2023-04-19T05:13:32.490Z,102950.31
2023-04-19T05:15:58.876Z,102952.19
2023-04-19T05:18:25.443Z,102946.03
2023-04-19T05:20:52.002Z,102949.50
2023-04-19T05:23:18.661Z,102951.38
2023-04-19T05:25:45.075Z,102948.50
2023-04-19T05:28:11.477Z,102950.53
2023-04-19T05:30:37.829Z,102959.38
2023-04-19T05:33:04.856Z,102949.72
2023-04-19T05:35:31.436Z,102959.97
2023-04-19T05:37:57.760Z,102958.16
2023-04-19T05:40:24.317Z,102954.25
2023-04-19T05:42:50.773Z,102953.47
2023-04-19T05:45:18.904Z,102957.22
2023-04-19T05:47:45.480Z,102963.66
2023-04-19T05:50:12.091Z,102961.09
2023-04-19T05:52:38.592Z,102961.16
2023-04-19T05:55:05.865Z,102957.84
2023-04-19T05:57:32.316Z,102959.50
2023-04-19T06:02:30.058Z,102961.78
2023-04-19T06:04:59.227Z,102960.75
2023-04-19T06:07:33.040Z,102962.41
2023-04-19T06:10:02.263Z,102952.56
2023-04-19T06:12:28.706Z,102964.53
2023-04-19T06:14:55.315Z,102956.06
2023-04-19T06:17:24.877Z,102965.34
2023-04-19T06:19:52.134Z,102961.88
2023-04-19T06:22:18.784Z,102960.00
2023-04-19T06:24:48.685Z,102960.75
2023-04-19T06:27:16.741Z,102958.50
2023-04-19T06:29:43.159Z,102961.09
2023-04-19T06:32:09.803Z,102965.41
2023-04-19T06:34:36.216Z,102949.78
2023-04-19T06:37:02.586Z,102964.34
2023-04-19T06:39:28.966Z,102964.63
2023-04-19T06:41:55.354Z,102966.94
2023-04-19T06:44:21.756Z,102969.66
2023-04-19T06:46:48.128Z,102959.13
2023-04-19T06:49:14.506Z,102967.53
2023-04-19T06:51:40.832Z,102959.66
2023-04-19T06:54:07.666Z,102962.34
2023-04-19T06:56:45.905Z,102963.53
2023-04-19T06:59:17.538Z,102970.13
2023-04-19T07:01:44.830Z,102968.28
2023-04-19T07:04:13.465Z,102967.63
2023-04-19T07:06:39.982Z,102962.41
2023-04-19T07:09:07.230Z,102961.97
2023-04-19T07:11:33.900Z,102967.69
2023-04-19T07:14:00.984Z,102963.06
2023-04-19T07:16:27.902Z,102963.94
2023-04-19T07:18:54.404Z,102963.72
2023-04-19T07:21:21.067Z,102969.25
2023-04-19T07:23:47.481Z,102969.69
2023-04-19T07:26:14.921Z,102956.22
2023-04-19T07:28:41.483Z,102958.03
2023-04-19T07:31:08.097Z,102971.28
2023-04-19T07:33:34.722Z,102965.16
2023-04-19T07:36:01.686Z,102963.38
2023-04-19T07:38:28.296Z,102961.38
2023-04-19T07:40:54.641Z,102958.63
2023-04-19T07:43:21.198Z,102970.34
2023-04-19T07:45:47.673Z,102968.81
2023-04-19T07:48:14.080Z,102961.03
2023-04-19T07:50:40.678Z,102967.31
2023-04-19T07:53:07.122Z,102971.56
2023-04-19T07:55:33.838Z,102969.03
2023-04-19T07:58:01.316Z,102971.84
2023-04-19T08:00:29.735Z,102974.31
2023-04-19T08:02:57.318Z,102970.44
2023-04-19T08:05:24.124Z,102966.13
2023-04-19T08:07:51.935Z,102967.50
2023-04-19T08:10:18.388Z,102970.91
2023-04-19T08:12:57.297Z,102971.44
2023-04-19T08:18:00.936Z,102971.72
2023-04-19T08:20:27.428Z,102957.09
2023-04-19T08:22:54.262Z,102964.19
2023-04-19T08:25:21.248Z,102960.13
2023-04-19T08:27:47.610Z,102964.03
2023-04-19T08:30:14.121Z,102964.38
2023-04-19T08:32:40.613Z,102970.56
2023-04-19T08:35:08.360Z,102959.56
2023-04-19T08:37:34.864Z,102966.69
2023-04-19T08:40:01.628Z,102964.13
2023-04-19T08:42:35.504Z,102951.22
2023-04-19T08:47:44.755Z,102948.31
2023-04-19T08:50:28.897Z,102950.78
2023-04-19T08:53:12.283Z,102948.53
2023-04-19T08:56:07.021Z,102954.41
2023-04-19T08:58:46.626Z,102954.53
2023-04-19T09:01:30.959Z,102955.56
2023-04-19T09:04:10.511Z,102952.56
2023-04-19T09:06:47.243Z,102947.91
2023-04-19T09:11:51.519Z,102948.41
2023-04-19T09:14:21.131Z,102944.69
2023-04-19T09:16:48.246Z,102945.13
2023-04-19T09:19:24.165Z,102948.38
2023-04-19T09:21:53.652Z,102946.88
2023-04-19T09:25:04.523Z,102931.13
2023-04-19T09:27:36.328Z,102942.41
2023-04-19T09:30:04.802Z,102947.22
2023-04-19T09:32:47.036Z,102934.72
2023-04-19T09:35:14.089Z,102927.22
2023-04-19T09:38:02.070Z,102927.47
2023-04-19T09:40:28.495Z,102920.69
2023-04-19T09:48:07.768Z,102928.81
2023-04-19T09:50:46.214Z,102921.66
2023-04-19T09:53:18.230Z,102927.25
2023-04-19T09:55:57.633Z,102926.72
2023-04-19T09:58:34.282Z,102925.22
2023-04-19T10:03:35.231Z,102922.38
2023-04-19T10:06:10.276Z,102924.09
2023-04-19T10:08:41.270Z,102918.84
2023-04-19T10:11:07.808Z,102935.63
2023-04-19T10:13:34.357Z,102917.38
2023-04-19T10:16:11.665Z,102912.84
2023-04-19T10:18:45.587Z,102903.94
2023-04-19T10:21:12.839Z,102909.38
2023-04-19T10:23:39.445Z,102905.19
2023-04-19T10:26:07.218Z,102906.03
2023-04-19T10:28:35.857Z,102903.50
2023-04-19T10:31:04.595Z,102894.19
2023-04-19T10:33:35.532Z,102906.44
2023-04-19T10:36:02.230Z,102895.34
2023-04-19T10:38:40.436Z,102892.84
2023-04-19T10:41:14.600Z,102892.25
2023-04-19T10:44:08.120Z,102889.16
2023-04-19T10:46:35.976Z,102890.09
2023-04-19T10:49:07.693Z,102880.22
2023-04-19T10:51:36.397Z,102892.97
2023-04-19T10:54:10.204Z,102884.06
2023-04-19T10:56:36.527Z,102886.38
2023-04-19T10:59:10.978Z,102885.41
2023-04-19T11:01:45.817Z,102872.66
2023-04-19T11:04:19.048Z,102869.41
2023-04-19T11:06:51.506Z,102877.81
2023-04-19T11:09:24.368Z,102874.06
2023-04-19T11:11:52.466Z,102865.16
2023-04-19T11:14:20.730Z,102861.09
2023-04-19T11:16:47.233Z,102853.75
2023-04-19T11:19:17.869Z,102859.41
2023-04-19T11:21:49.472Z,102855.38
2023-04-19T11:24:18.672Z,102850.84
2023-04-19T11:26:46.159Z,102853.53
2023-04-19T11:29:13.196Z,102846.47
2023-04-19T11:31:39.820Z,102834.78
2023-04-19T11:34:06.265Z,102833.44
2023-04-19T11:36:33.875Z,102829.81
2023-04-19T11:39:00.260Z,102830.84
2023-04-19T11:41:26.675Z,102826.78
2023-04-19T11:43:53.267Z,102819.53
2023-04-19T11:46:19.634Z,102821.47
2023-04-19T11:48:53.288Z,102815.91
2023-04-19T11:51:20.447Z,102804.28
2023-04-19T11:53:47.157Z,102808.75
2023-04-19T11:56:15.225Z,102800.28
2023-04-19T11:58:50.164Z,102797.44
2023-04-19T12:01:24.573Z,102805.56
2023-04-19T12:03:56.534Z,102797.34
2023-04-19T12:06:28.334Z,102794.53
2023-04-19T12:08:56.054Z,102785.53
2023-04-19T12:11:24.592Z,102788.56
2023-04-19T12:14:09.994Z,102783.31
2023-04-19T12:16:36.371Z,102788.44
2023-04-19T12:19:20.423Z,102788.47
2023-04-19T12:21:47.585Z,102789.31
2023-04-19T12:24:17.211Z,102789.72
2023-04-19T12:26:57.268Z,102785.81
2023-04-19T12:29:24.168Z,102780.06
2023-04-19T12:31:51.120Z,102774.72
2023-04-19T12:34:17.495Z,102776.41
2023-04-19T12:36:43.871Z,102769.03
2023-04-19T12:39:10.265Z,102772.16
2023-04-19T12:41:36.614Z,102764.66
2023-04-19T12:44:03.059Z,102764.00
2023-04-19T12:46:29.501Z,102755.13
2023-04-19T12:48:55.969Z,102763.19
2023-04-19T12:51:22.313Z,102752.66
2023-04-19T12:53:49.973Z,102755.16
2023-04-19T12:56:17.855Z,102751.50
2023-04-19T12:58:44.273Z,102747.34
2023-04-19T13:01:10.939Z,102756.44
2023-04-19T13:03:37.824Z,102750.19
2023-04-19T13:06:05.860Z,102740.81
2023-04-19T13:08:43.854Z,102734.44
2023-04-19T13:11:12.465Z,102727.78
2023-04-19T13:13:38.862Z,102715.50
2023-04-19T13:16:06.178Z,102710.88
2023-04-19T13:18:32.617Z,102718.53
2023-04-19T13:20:59.101Z,102710.03
2023-04-19T13:23:25.673Z,102701.78
2023-04-19T13:25:52.018Z,102710.50
2023-04-19T13:28:18.394Z,102703.59
2023-04-19T13:30:44.816Z,102699.75
2023-04-19T13:33:11.238Z,102697.38
2023-04-19T13:35:37.649Z,102691.34
2023-04-19T13:38:03.985Z,102685.84
2023-04-19T13:40:30.464Z,102689.00
2023-04-19T13:42:56.873Z,102676.41
2023-04-19T13:45:23.395Z,102674.13
2023-04-19T13:47:49.806Z,102671.72
2023-04-19T13:50:16.278Z,102670.06
2023-04-19T13:52:42.657Z,102672.31
2023-04-19T13:55:09.368Z,102675.69
2023-04-19T13:57:35.785Z,102657.50
2023-04-19T14:00:02.224Z,102654.84
2023-04-19T14:02:28.973Z,102657.56
2023-04-19T14:04:58.762Z,102651.53
2023-04-19T14:07:25.251Z,102646.72
2023-04-19T14:09:51.817Z,102643.78
2023-04-19T14:12:18.186Z,102637.25
2023-04-19T14:14:44.577Z,102637.97
2023-04-19T14:17:10.943Z,102617.03
2023-04-19T14:19:37.829Z,102630.69
2023-04-19T14:22:04.201Z,102618.84
2023-04-19T14:24:30.678Z,102615.72
2023-04-19T14:27:10.424Z,102613.97
2023-04-19T14:29:37.736Z,102609.41
2023-04-19T14:32:17.219Z,102596.19
2023-04-19T14:34:47.615Z,102607.56
2023-04-19T14:37:14.117Z,102592.19
2023-04-19T14:39:40.517Z,102590.13
2023-04-19T14:42:07.018Z,102599.31
2023-04-19T14:44:33.365Z,102595.44
2023-04-19T14:46:59.687Z,102595.72
2023-04-19T14:49:26.133Z,102586.53
2023-04-19T14:51:52.773Z,102589.75
2023-04-19T14:54:19.093Z,102588.97
2023-04-19T14:56:50.067Z,102580.47
2023-04-19T14:59:16.820Z,102574.38
2023-04-19T15:01:43.458Z,102575.72
2023-04-19T15:04:10.054Z,102560.31
2023-04-19T15:06:36.553Z,102567.03
2023-04-19T15:09:03.378Z,102571.94
2023-04-19T15:11:29.768Z,102566.97
2023-04-19T15:13:56.170Z,102567.38
2023-04-19T15:16:22.689Z,102565.47
2023-04-19T15:18:49.190Z,102565.84
2023-04-19T15:21:18.694Z,102566.50
2023-04-19T15:23:45.198Z,102562.03
2023-04-19T15:26:11.743Z,102559.66
2023-04-19T15:28:38.548Z,102552.78
2023-04-19T15:31:06.540Z,102557.28
2023-04-19T15:33:36.362Z,102554.75
2023-04-19T15:36:03.899Z,102549.88
2023-04-19T15:38:31.411Z,102545.53
2023-04-19T15:40:58.889Z,102553.53
2023-04-19T15:43:25.574Z,102544.59
2023-04-19T15:45:52.256Z,102542.13
2023-04-19T15:48:20.541Z,102553.56
2023-04-19T15:50:47.422Z,102540.81
2023-04-19T15:53:14.273Z,102540.75
2023-04-19T15:55:41.540Z,102549.00
2023-04-19T15:58:08.247Z,102544.28
2023-04-19T16:00:34.758Z,102539.53
2023-04-19T16:03:01.411Z,102545.28
2023-04-19T16:05:28.062Z,102543.84
2023-04-19T16:08:19.713Z,102539.31
2023-04-19T16:10:47.080Z,102538.84
2023-04-19T16:13:14.167Z,102532.84
2023-04-19T16:15:41.792Z,102530.56
2023-04-19T16:18:08.615Z,102532.69
2023-04-19T16:20:35.649Z,102525.41
2023-04-19T16:23:03.414Z,102527.38
2023-04-19T16:25:30.897Z,102524.78
2023-04-19T16:27:57.434Z,102535.81
2023-04-19T16:30:23.887Z,102528.56
2023-04-19T16:32:50.479Z,102532.44
2023-04-19T16:35:18.269Z,102531.22
2023-04-19T16:37:44.621Z,102533.16
2023-04-19T16:40:11.372Z,102533.41
2023-04-19T16:42:38.815Z,102527.13
2023-04-19T16:45:06.352Z,102522.31
2023-04-19T16:47:33.771Z,102523.91
2023-04-19T16:50:00.938Z,102514.47
2023-04-19T16:52:29.757Z,102523.19
2023-04-19T16:54:56.283Z,102518.69
2023-04-19T16:57:23.674Z,102516.78
2023-04-19T16:59:50.538Z,102519.75
2023-04-19T17:02:17.477Z,102513.56
2023-04-19T17:04:44.242Z,102514.44
2023-04-19T17:07:11.597Z,102515.50
2023-04-19T17:09:38.074Z,102514.91
2023-04-19T17:12:04.986Z,102516.50
2023-04-19T17:14:33.296Z,102507.84
2023-04-19T17:16:59.695Z,102514.47
2023-04-19T17:19:26.757Z,102498.34
2023-04-19T17:21:53.182Z,102511.00
2023-04-19T17:24:19.695Z,102509.84
2023-04-19T17:26:46.081Z,102502.28
2023-04-19T17:29:12.581Z,102500.53
2023-04-19T17:31:39.131Z,102504.72
2023-04-19T17:34:05.664Z,102502.31
2023-04-19T17:36:32.089Z,102505.91
2023-04-19T17:38:58.530Z,102499.22
2023-04-19T17:41:24.914Z,102504.97
2023-04-19T17:43:51.334Z,102496.16
2023-04-19T17:46:19.027Z,102511.34
2023-04-19T17:48:45.699Z,102495.47
2023-04-19T17:51:12.110Z,102504.34
2023-04-19T17:53:38.439Z,102500.06
2023-04-19T17:56:05.351Z,102499.84
2023-04-19T17:58:31.839Z,102502.59
2023-04-19T18:00:58.250Z,102505.06
2023-04-19T18:03:24.751Z,102504.84
2023-04-19T18:05:51.227Z,102503.72
2023-04-19T18:08:17.604Z,102509.84
2023-04-19T18:10:44.020Z,102510.50
2023-04-19T18:13:10.415Z,102501.72
2023-04-19T18:15:36.860Z,102498.59
2023-04-19T18:18:03.493Z,102511.75
2023-04-19T18:20:30.063Z,102521.84
2023-04-19T18:22:58.966Z,102517.00
2023-04-19T18:25:25.736Z,102511.97
2023-04-19T18:27:52.139Z,102519.72
2023-04-19T18:30:18.641Z,102519.50
2023-04-19T18:32:45.059Z,102526.56
2023-04-19T18:35:11.549Z,102525.31
2023-04-19T18:37:37.991Z,102532.31
2023-04-19T18:40:06.990Z,102534.88
2023-04-19T18:42:33.512Z,102536.84
2023-04-19T18:44:59.911Z,102536.19
2023-04-19T18:47:26.565Z,102539.06
2023-04-19T18:50:04.439Z,102539.13
2023-04-19T18:52:33.976Z,102542.22
2023-04-19T18:55:00.749Z,102546.28
2023-04-19T18:57:28.015Z,102546.94
2023-04-19T18:59:57.421Z,102549.94
2023-04-19T19:02:23.921Z,102560.31
2023-04-19T19:04:57.984Z,102561.13
2023-04-19T19:07:36.268Z,102561.03
2023-04-19T19:10:17.004Z,102560.94
2023-04-19T19:12:45.344Z,102562.50
2023-04-19T19:15:11.808Z,102563.13
2023-04-19T19:17:38.435Z,102563.72
2023-04-19T19:20:06.632Z,102576.06
2023-04-19T19:22:34.090Z,102578.09
2023-04-19T19:25:01.151Z,102575.75
2023-04-19T19:27:27.642Z,102583.81
2023-04-19T19:29:54.002Z,102586.84
2023-04-19T19:32:20.665Z,102575.28
2023-04-19T19:34:55.684Z,102588.84
2023-04-19T19:37:27.489Z,102590.44
2023-04-19T19:39:56.256Z,102594.31
2023-04-19T19:42:22.861Z,102595.22
2023-04-19T19:44:53.468Z,102596.16
2023-04-19T19:47:19.947Z,102596.47
2023-04-19T19:50:20.257Z,102599.69
2023-04-19T19:52:33.410Z,102608.31
2023-04-19T19:55:00.033Z,102606.28
2023-04-19T19:59:56.910Z,102616.75
2023-04-19T20:02:24.640Z,102620.81
2023-04-19T20:04:51.488Z,102618.66
2023-04-19T20:07:37.203Z,102624.09
2023-04-19T20:10:11.826Z,102627.91
2023-04-19T20:12:41.323Z,102625.50
2023-04-19T20:15:08.622Z,102628.03
2023-04-19T20:17:35.008Z,102633.44
2023-04-19T20:20:05.589Z,102639.03
2023-04-19T20:22:31.918Z,102635.59
2023-04-19T20:24:58.251Z,102634.88
2023-04-19T20:27:24.573Z,102641.69
2023-04-19T20:29:50.982Z,102646.69
2023-04-19T20:32:17.588Z,102642.22
2023-04-19T20:34:44.017Z,102638.56
2023-04-19T20:37:11.492Z,102652.22
2023-04-19T20:39:37.898Z,102647.53
2023-04-19T20:42:06.900Z,102646.09
2023-04-19T20:44:33.962Z,102649.88
2023-04-19T20:47:00.642Z,102647.25
2023-04-19T20:49:26.974Z,102649.56
2023-04-19T20:51:53.388Z,102649.38
2023-04-19T20:54:20.161Z,102640.97
2023-04-19T20:56:47.947Z,102655.44
2023-04-19T20:59:14.468Z,102652.94
2023-04-19T21:01:42.322Z,102650.31
2023-04-19T21:04:08.934Z,102649.31
2023-04-19T21:06:35.504Z,102647.09
2023-04-19T21:09:01.954Z,102652.25
2023-04-19T21:11:28.352Z,102649.22
2023-04-19T21:13:54.701Z,102647.00
2023-04-19T21:16:21.116Z,102651.75
2023-04-19T21:18:47.481Z,102653.00
2023-04-19T21:21:13.881Z,102653.84
2023-04-19T21:23:40.310Z,102655.09
2023-04-19T21:26:06.854Z,102654.72
2023-04-19T21:28:36.112Z,102654.31
2023-04-19T21:31:02.966Z,102651.22
2023-04-19T21:33:29.507Z,102655.16
2023-04-19T21:35:56.017Z,102656.59
2023-04-19T21:38:22.377Z,102654.56
2023-04-19T21:40:49.431Z,102648.84
2023-04-19T21:43:17.610Z,102649.84
2023-04-19T21:45:44.121Z,102644.31
2023-04-19T21:48:10.562Z,102649.25
2023-04-19T21:50:36.945Z,102650.72
2023-04-19T21:53:03.294Z,102648.06
2023-04-19T21:55:32.235Z,102649.91
2023-04-19T21:57:58.969Z,102653.00
2023-04-19T22:00:25.453Z,102641.09
2023-04-19T22:02:51.901Z,102646.22
2023-04-19T22:05:18.624Z,102642.31
2023-04-19T22:07:45.047Z,102646.47
2023-04-19T22:10:13.392Z,102643.34
2023-04-19T22:12:51.254Z,102640.28
2023-04-19T22:15:25.705Z,102648.13
2023-04-19T22:17:52.157Z,102644.44
2023-04-19T22:20:18.555Z,102652.44
2023-04-19T22:22:44.990Z,102645.25
2023-04-19T22:25:11.430Z,102644.00
2023-04-19T22:27:37.822Z,102643.81
2023-04-19T22:30:04.591Z,102639.91
2023-04-19T22:32:30.982Z,102641.31
2023-04-19T22:34:57.327Z,102644.44
2023-04-19T22:37:23.851Z,102645.84
2023-04-19T22:39:50.256Z,102645.44
2023-04-19T22:42:16.644Z,102637.84
2023-04-19T22:44:43.025Z,102643.78
2023-04-19T22:47:09.491Z,102650.97
2023-04-19T22:49:35.861Z,102647.09
2023-04-19T22:52:02.611Z,102642.31
2023-04-19T22:54:29.001Z,102642.13
2023-04-19T22:56:55.382Z,102637.19
2023-04-19T22:59:21.772Z,102642.75
2023-04-19T23:01:48.141Z,102646.84
2023-04-19T23:04:14.742Z,102642.53
2023-04-19T23:06:44.195Z,102644.78
2023-04-19T23:09:13.650Z,102644.97
2023-04-19T23:11:40.903Z,102635.34
2023-04-19T23:14:10.540Z,102641.06
2023-04-19T23:16:38.493Z,102637.78
2023-04-19T23:19:07.373Z,102641.47
2023-04-19T23:21:34.419Z,102637.38
2023-04-19T23:24:00.911Z,102635.09
2023-04-19T23:26:27.336Z,102633.44
2023-04-19T23:28:53.767Z,102627.88
2023-04-19T23:31:20.319Z,102627.47
2023-04-19T23:33:46.705Z,102623.53
2023-04-19T23:36:13.037Z,102617.81
2023-04-19T23:38:39.350Z,102613.69
2023-04-19T23:41:06.013Z,102613.28
2023-04-19T23:43:32.426Z,102611.81
2023-04-19T23:45:58.813Z,102604.63
2023-04-19T23:48:25.318Z,102611.59
2023-04-19T23:50:51.727Z,102609.53
2023-04-19T23:53:18.070Z,102600.47
2023-04-19T23:55:44.495Z,102601.47
2023-04-19T23:58:10.906Z,102598.34
